createdAt,value
2023-01-27T00:02:26.525Z,87.7
2023-01-27T00:07:18.515Z,87.4
2023-01-27T00:09:45.117Z,87.6
2023-01-27T00:12:11.802Z,87.5
2023-01-27T00:14:38.476Z,87.1
2023-01-27T00:17:05.165Z,87.2
2023-01-27T00:21:58.581Z,86.6
2023-01-27T00:24:25.232Z,86
2023-01-27T00:26:51.933Z,85.8
2023-01-27T00:31:45.296Z,85.2
2023-01-27T00:34:11.957Z,84.5
2023-01-27T00:36:38.646Z,84.3
2023-01-27T00:39:03.864Z,83.2
2023-01-27T00:41:30.553Z,83.3
2023-01-27T00:43:57.229Z,83.2
2023-01-27T00:46:23.911Z,82.3
2023-01-27T00:48:50.598Z,82.3
2023-01-27T00:51:17.293Z,82.1
2023-01-27T00:53:43.978Z,82.6
2023-01-27T00:56:10.655Z,82.2
2023-01-27T00:58:37.343Z,81.3
2023-01-27T01:01:04.037Z,81.1
2023-01-27T01:03:30.724Z,80.9
2023-01-27T01:05:57.407Z,80.4
2023-01-27T01:08:24.084Z,79.7
2023-01-27T01:10:49.309Z,79.6
2023-01-27T01:13:14.556Z,79.8
2023-01-27T01:15:39.857Z,79.6
2023-01-27T01:18:06.512Z,79.7
2023-01-27T01:20:33.153Z,80.5
2023-01-27T01:22:59.825Z,80.7
2023-01-27T01:25:26.525Z,82.6
2023-01-27T01:27:53.201Z,82.8
2023-01-27T01:30:19.882Z,83.1
2023-01-27T01:32:46.635Z,82.5
2023-01-27T01:35:13.256Z,81.1
2023-01-27T01:37:39.951Z,79.8
2023-01-27T01:40:05.196Z,79.5
2023-01-27T01:42:30.411Z,79.8
2023-01-27T01:44:55.649Z,79.6
2023-01-27T01:47:22.337Z,80.9
2023-01-27T01:49:49.028Z,80.5
2023-01-27T01:52:15.808Z,80
2023-01-27T01:54:42.483Z,79.3
2023-01-27T01:57:09.100Z,79.4
2023-01-27T01:59:35.940Z,79
2023-01-27T02:02:02.627Z,78.1
2023-01-27T02:04:29.340Z,77.6
2023-01-27T02:06:55.929Z,77.1
2023-01-27T02:09:22.719Z,76.9
2023-01-27T02:11:49.365Z,76.9
2023-01-27T02:14:16.064Z,76.4
2023-01-27T02:16:41.281Z,76.3
2023-01-27T02:19:07.955Z,76
2023-01-27T02:21:34.520Z,75.8
2023-01-27T02:24:01.256Z,75.6
2023-01-27T02:26:27.935Z,75.1
2023-01-27T02:28:54.527Z,74.8
2023-01-27T02:31:21.384Z,74.6
2023-01-27T02:33:47.998Z,74.4
2023-01-27T02:36:14.780Z,74.2
2023-01-27T02:38:41.505Z,74
2023-01-27T02:41:07.958Z,74.1
2023-01-27T02:43:34.641Z,74.2
2023-01-27T02:46:01.491Z,74.5
2023-01-27T02:48:28.150Z,74.4
2023-01-27T02:50:53.333Z,73.8
2023-01-27T02:53:20.053Z,73.5
2023-01-27T02:55:46.765Z,73.8
2023-01-27T02:58:13.391Z,74
2023-01-27T03:00:40.076Z,74.1
2023-01-27T03:03:06.717Z,74.8
2023-01-27T03:05:33.500Z,75.2
2023-01-27T03:08:00.229Z,74.7
2023-01-27T03:10:26.818Z,74.6
2023-01-27T03:12:53.586Z,74.5
2023-01-27T03:15:20.249Z,74.8
2023-01-27T03:17:46.857Z,75.1
2023-01-27T03:20:13.667Z,75.1
2023-01-27T03:22:38.670Z,75.2
2023-01-27T03:25:05.538Z,75.5
2023-01-27T03:27:32.195Z,75.4
2023-01-27T03:29:58.906Z,75.5
2023-01-27T03:32:25.568Z,75.2
2023-01-27T03:34:52.117Z,75.4
2023-01-27T03:37:18.790Z,75.3
2023-01-27T03:39:45.471Z,75.7
2023-01-27T03:42:12.154Z,76.5
2023-01-27T03:44:38.853Z,76.6
2023-01-27T03:47:05.673Z,76.8
2023-01-27T03:49:32.280Z,76.7
2023-01-27T03:51:59.125Z,76.9
2023-01-27T03:54:24.235Z,77.1
2023-01-27T03:56:50.861Z,76.7
2023-01-27T03:59:17.648Z,76.4
2023-01-27T04:01:44.282Z,76.2
2023-01-27T04:04:11.071Z,75.8
2023-01-27T04:06:37.712Z,76.3
2023-01-27T04:09:04.249Z,76.4
2023-01-27T04:11:30.921Z,76.3
2023-01-27T04:13:57.724Z,76.2
2023-01-27T04:16:24.332Z,76.2
2023-01-27T04:18:51.030Z,76
2023-01-27T04:21:17.756Z,76
2023-01-27T04:23:44.472Z,76.2
2023-01-27T04:26:09.691Z,76.5
2023-01-27T04:31:02.927Z,76.4
2023-01-27T04:33:29.682Z,76.4
2023-01-27T04:35:56.439Z,77.5
2023-01-27T04:38:23.145Z,77.6
2023-01-27T04:40:49.672Z,78.4
2023-01-27T04:43:16.489Z,80.5
2023-01-27T04:45:43.070Z,81
2023-01-27T04:48:09.726Z,82
2023-01-27T04:50:36.652Z,84
2023-01-27T04:53:03.250Z,84.8
2023-01-27T04:55:29.920Z,88.4
2023-01-27T04:57:55.205Z,88.4
2023-01-27T05:00:21.677Z,91.2
2023-01-27T05:02:48.549Z,89.5
2023-01-27T05:05:15.068Z,89.9
2023-01-27T05:07:41.740Z,89.1
2023-01-27T05:10:08.413Z,90
2023-01-27T05:12:35.120Z,89.1
2023-01-27T05:15:01.794Z,88.4
2023-01-27T05:17:28.539Z,89.2
2023-01-27T05:19:55.166Z,93.9
2023-01-27T05:22:21.882Z,93.9
2023-01-27T05:24:48.702Z,93.4
2023-01-27T05:27:15.394Z,92.5
2023-01-27T05:29:40.609Z,91.3
2023-01-27T05:32:07.153Z,90.8
2023-01-27T05:34:33.932Z,92.8
2023-01-27T05:37:00.610Z,94.9
2023-01-27T05:39:27.216Z,94.6
2023-01-27T05:41:53.932Z,94.9
2023-01-27T05:44:20.622Z,95.8
2023-01-27T05:46:47.247Z,92.7
2023-01-27T05:49:14.083Z,93.8
2023-01-27T05:51:40.708Z,95.1
2023-01-27T05:54:07.403Z,96.2
2023-01-27T05:56:34.229Z,98.4
2023-01-27T05:59:00.795Z,98.8
2023-01-27T06:01:26.062Z,98.3
2023-01-27T06:03:52.574Z,99.3
2023-01-27T06:06:19.323Z,100
2023-01-27T06:08:46.251Z,98.8
2023-01-27T06:11:12.720Z,98.5
2023-01-27T06:13:39.444Z,100
2023-01-27T06:16:06.058Z,100
2023-01-27T06:18:32.872Z,100
2023-01-27T06:20:59.449Z,100
2023-01-27T06:23:26.220Z,100
2023-01-27T06:25:52.902Z,100
2023-01-27T06:28:19.417Z,100
2023-01-27T06:30:46.119Z,100
2023-01-27T06:33:12.800Z,100
2023-01-27T06:35:38.019Z,100
2023-01-27T06:38:04.871Z,100
2023-01-27T06:40:31.398Z,100
2023-01-27T06:42:58.198Z,100
2023-01-27T06:45:24.781Z,100
2023-01-27T06:47:51.483Z,100
2023-01-27T06:50:18.123Z,100
2023-01-27T06:52:44.832Z,100
2023-01-27T06:55:11.525Z,100
2023-01-27T06:57:38.350Z,100
2023-01-27T07:00:04.926Z,100
2023-01-27T07:02:31.590Z,100
2023-01-27T07:04:58.349Z,100
2023-01-27T07:07:23.516Z,100
2023-01-27T07:09:50.283Z,100
2023-01-27T07:12:16.926Z,100
2023-01-27T07:14:43.646Z,100
2023-01-27T07:17:10.337Z,100
2023-01-27T07:19:37.111Z,100
2023-01-27T07:22:03.745Z,100
2023-01-27T07:26:57.055Z,100
2023-01-27T07:29:23.683Z,100
2023-01-27T07:31:50.524Z,100
2023-01-27T07:34:17.050Z,100
2023-01-27T07:36:43.804Z,100
2023-01-27T07:39:09.153Z,100
2023-01-27T07:41:35.731Z,100
2023-01-27T07:44:02.339Z,100
2023-01-27T07:46:29.081Z,100
2023-01-27T07:48:55.678Z,100
2023-01-27T07:51:22.357Z,100
2023-01-27T07:53:49.076Z,100
2023-01-27T07:56:15.745Z,100
2023-01-27T07:58:42.418Z,100
2023-01-27T08:01:09.094Z,100
2023-01-27T08:03:35.789Z,100
2023-01-27T08:06:02.465Z,100
2023-01-27T08:08:29.178Z,100
2023-01-27T08:10:54.375Z,100
2023-01-27T08:13:21.070Z,100
2023-01-27T08:15:47.749Z,100
2023-01-27T08:18:14.462Z,100
2023-01-27T08:20:41.110Z,100
2023-01-27T08:25:34.517Z,100
2023-01-27T08:28:01.187Z,100
2023-01-27T08:30:27.876Z,100
2023-01-27T08:32:54.565Z,100
2023-01-27T08:35:21.262Z,100
2023-01-27T08:37:47.935Z,100
2023-01-27T08:40:14.630Z,100
2023-01-27T08:42:39.843Z,100
2023-01-27T08:45:06.524Z,100
2023-01-27T08:47:33.197Z,100
2023-01-27T08:49:59.935Z,100
2023-01-27T08:54:53.278Z,100
2023-01-27T08:57:19.964Z,100
2023-01-27T08:59:46.640Z,100
2023-01-27T09:02:13.321Z,100
2023-01-27T09:04:40.007Z,100
2023-01-27T09:07:06.697Z,100
2023-01-27T09:09:33.375Z,100
2023-01-27T09:12:00.084Z,100
2023-01-27T09:14:25.288Z,100
2023-01-27T09:16:51.962Z,100
2023-01-27T09:19:18.663Z,100
2023-01-27T09:21:45.345Z,100
2023-01-27T09:24:12.032Z,100
2023-01-27T09:26:38.713Z,100
2023-01-27T09:29:05.399Z,100
2023-01-27T09:31:32.085Z,100
2023-01-27T09:33:58.761Z,100
2023-01-27T09:38:52.163Z,100
2023-01-27T09:41:18.833Z,100
2023-01-27T09:43:45.519Z,100
2023-01-27T09:46:10.739Z,100
2023-01-27T09:48:37.429Z,100
2023-01-27T09:51:04.173Z,100
2023-01-27T09:53:30.799Z,100
2023-01-27T09:55:56.056Z,100
2023-01-27T09:58:22.734Z,100
2023-01-27T10:00:49.399Z,100
2023-01-27T10:03:16.104Z,100
2023-01-27T10:05:42.783Z,100
2023-01-27T10:08:09.469Z,100
2023-01-27T10:10:36.174Z,100
2023-01-27T10:13:02.830Z,100
2023-01-27T10:15:29.546Z,100
2023-01-27T10:17:56.214Z,100
2023-01-27T10:20:22.892Z,100
2023-01-27T10:22:49.586Z,100
2023-01-27T10:25:16.253Z,100
2023-01-27T10:27:41.495Z,100
2023-01-27T10:30:08.163Z,100
2023-01-27T10:32:34.860Z,100
2023-01-27T10:35:01.541Z,100
2023-01-27T10:37:28.254Z,100
2023-01-27T10:39:54.919Z,100
2023-01-27T10:42:21.612Z,100
2023-01-27T10:44:48.288Z,100
2023-01-27T10:47:14.971Z,100
2023-01-27T10:49:41.656Z,100
2023-01-27T10:52:08.352Z,100
2023-01-27T10:54:35.040Z,100
2023-01-27T10:57:01.722Z,100
2023-01-27T10:59:26.947Z,100
2023-01-27T11:01:53.638Z,100
2023-01-27T11:06:46.989Z,100
2023-01-27T11:09:13.686Z,100
2023-01-27T11:11:40.371Z,100
2023-01-27T11:14:07.052Z,100
2023-01-27T11:16:33.740Z,100
2023-01-27T11:19:00.416Z,100
2023-01-27T11:21:27.104Z,100
2023-01-27T11:23:53.793Z,100
2023-01-27T11:26:20.482Z,100
2023-01-27T11:28:47.185Z,100
2023-01-27T11:31:12.394Z,100
2023-01-27T11:33:39.081Z,100
2023-01-27T11:36:05.760Z,100
2023-01-27T11:38:32.451Z,100
2023-01-27T11:40:59.133Z,100
2023-01-27T11:43:26.021Z,100
2023-01-27T11:45:52.501Z,100
2023-01-27T11:48:19.191Z,100
2023-01-27T11:50:45.864Z,100
2023-01-27T11:53:12.564Z,100
2023-01-27T11:55:39.245Z,100
2023-01-27T11:58:05.917Z,100
2023-01-27T12:00:32.625Z,100
2023-01-27T12:02:57.866Z,100
2023-01-27T12:05:24.526Z,100
2023-01-27T12:07:51.209Z,100
2023-01-27T12:10:17.902Z,100
2023-01-27T12:12:44.574Z,100
2023-01-27T12:15:11.264Z,100
2023-01-27T12:17:37.968Z,100
2023-01-27T12:20:04.646Z,100
2023-01-27T12:22:31.325Z,100
2023-01-27T12:24:58.008Z,100
2023-01-27T12:27:24.693Z,100
2023-01-27T12:29:51.397Z,100
2023-01-27T12:32:18.118Z,100
2023-01-27T12:34:43.283Z,100
2023-01-27T12:37:10.012Z,100
2023-01-27T12:39:36.654Z,100
2023-01-27T12:42:03.324Z,100
2023-01-27T12:44:30.036Z,100
2023-01-27T12:46:56.707Z,100
2023-01-27T12:49:23.420Z,100
2023-01-27T12:51:50.127Z,100
2023-01-27T12:54:16.785Z,100
2023-01-27T12:56:43.448Z,100
2023-01-27T12:59:10.140Z,100
2023-01-27T13:01:36.821Z,100
2023-01-27T13:04:03.515Z,100
2023-01-27T13:06:28.733Z,100
2023-01-27T13:08:55.420Z,100
2023-01-27T13:11:22.095Z,100
2023-01-27T13:13:48.799Z,100
2023-01-27T13:18:42.154Z,100
2023-01-27T13:21:08.842Z,100
2023-01-27T13:23:35.535Z,100
2023-01-27T13:26:02.216Z,100
2023-01-27T13:28:28.908Z,100
2023-01-27T13:30:55.593Z,100
2023-01-27T13:33:22.274Z,100
2023-01-27T13:35:48.967Z,100
2023-01-27T13:38:14.173Z,100
2023-01-27T13:40:40.858Z,100
2023-01-27T13:43:07.559Z,100
2023-01-27T13:45:34.238Z,100
2023-01-27T13:48:00.932Z,100
2023-01-27T13:50:27.611Z,100
2023-01-27T13:52:54.287Z,100
2023-01-27T13:55:20.989Z,100
2023-01-27T13:57:47.668Z,100
2023-01-27T14:00:14.359Z,100
2023-01-27T14:07:34.406Z,100
2023-01-27T14:10:00.729Z,100
2023-01-27T14:12:27.428Z,100
2023-01-27T14:14:53.707Z,100
2023-01-27T14:17:20.535Z,100
2023-01-27T14:19:47.089Z,100
2023-01-27T14:22:13.774Z,100
2023-01-27T14:24:40.476Z,100
2023-01-27T14:27:07.211Z,100
2023-01-27T14:29:33.929Z,100
2023-01-27T14:32:00.734Z,100
2023-01-27T14:34:27.348Z,100
2023-01-27T14:36:52.496Z,100
2023-01-27T14:41:45.625Z,100
2023-01-27T14:44:12.227Z,100
2023-01-27T14:46:38.838Z,100
2023-01-27T14:49:05.713Z,100
2023-01-27T14:51:32.392Z,100
2023-01-27T14:53:59.063Z,100
2023-01-27T14:56:25.710Z,100
2023-01-27T14:58:52.407Z,100
2023-01-27T15:01:19.166Z,100
2023-01-27T15:03:45.791Z,100
2023-01-27T15:06:12.465Z,100
2023-01-27T15:08:39.153Z,100
2023-01-27T15:11:05.829Z,100
2023-01-27T15:13:32.145Z,100
2023-01-27T15:18:25.460Z,100
2023-01-27T15:20:52.249Z,100
2023-01-27T15:23:18.702Z,100
2023-01-27T15:25:45.400Z,100
2023-01-27T15:28:12.255Z,100
2023-01-27T15:30:38.766Z,100
2023-01-27T15:33:05.459Z,100
2023-01-27T15:35:32.224Z,100
2023-01-27T15:37:58.821Z,100
2023-01-27T15:40:25.654Z,100
2023-01-27T15:42:52.312Z,100
2023-01-27T15:45:17.412Z,100
2023-01-27T15:47:44.178Z,100
2023-01-27T15:50:10.988Z,100
2023-01-27T15:52:37.599Z,100
2023-01-27T15:55:04.347Z,100
2023-01-27T15:57:30.873Z,100
2023-01-27T15:59:57.544Z,100
2023-01-27T16:04:50.908Z,100
2023-01-27T16:07:17.700Z,100
2023-01-27T16:09:44.274Z,100
2023-01-27T16:14:37.736Z,100
2023-01-27T16:17:04.028Z,100
2023-01-27T16:19:30.783Z,100
2023-01-27T16:24:24.172Z,100
2023-01-27T16:31:43.894Z,100
2023-01-27T16:34:09.047Z,100
2023-01-27T16:36:35.326Z,100
2023-01-27T16:39:01.946Z,100
2023-01-27T16:41:28.885Z,100
2023-01-27T16:43:55.436Z,100
2023-01-27T16:46:22.125Z,100
2023-01-27T16:48:48.798Z,100
2023-01-27T16:51:15.482Z,100
2023-01-27T16:53:42.179Z,100
2023-01-27T16:56:08.939Z,100
2023-01-27T16:58:35.424Z,100
2023-01-27T17:01:01.848Z,100
2023-01-27T17:03:28.496Z,100
2023-01-27T17:08:21.464Z,100
2023-01-27T17:10:48.152Z,100
2023-01-27T17:13:14.833Z,100
2023-01-27T17:18:08.139Z,100
2023-01-27T17:23:01.562Z,100
2023-01-27T17:25:28.224Z,100
2023-01-27T17:27:55.013Z,100
2023-01-27T17:30:21.589Z,100
2023-01-27T17:32:48.381Z,100
2023-01-27T17:35:14.754Z,100
2023-01-27T17:37:41.382Z,100
2023-01-27T17:40:07.683Z,100
2023-01-27T17:42:34.389Z,100
2023-01-27T17:45:01.063Z,100
2023-01-27T17:47:27.741Z,100
2023-01-27T17:49:54.391Z,100
2023-01-27T17:52:21.120Z,100
2023-01-27T17:54:47.730Z,100
2023-01-27T17:57:14.362Z,100
2023-01-27T17:59:41.113Z,100
2023-01-27T18:02:06.295Z,100
2023-01-27T18:04:32.591Z,100
2023-01-27T18:06:59.370Z,100
2023-01-27T18:09:24.668Z,100
2023-01-27T18:11:51.306Z,100
2023-01-27T18:14:17.930Z,100
2023-01-27T18:16:44.587Z,100
2023-01-27T18:19:11.289Z,100
2023-01-27T18:21:38.119Z,100
2023-01-27T18:24:04.709Z,100
2023-01-27T18:26:31.479Z,100
2023-01-27T18:28:58.054Z,100
2023-01-27T18:31:24.792Z,100
2023-01-27T18:33:51.525Z,100
2023-01-27T18:36:18.116Z,100
2023-01-27T18:38:44.852Z,100
2023-01-27T18:41:10.115Z,100
2023-01-27T18:43:36.812Z,100
2023-01-27T18:46:03.432Z,100
2023-01-27T18:48:30.168Z,100
2023-01-27T18:50:56.787Z,100
2023-01-27T18:53:23.575Z,100
2023-01-27T18:55:50.239Z,100
2023-01-27T18:58:16.909Z,100
2023-01-27T19:00:43.626Z,100
2023-01-27T19:03:10.300Z,100
2023-01-27T19:05:37.006Z,100
2023-01-27T19:08:03.652Z,100
2023-01-27T19:10:30.274Z,100
2023-01-27T19:12:56.650Z,100
2023-01-27T19:15:23.170Z,100
2023-01-27T19:20:16.593Z,100
2023-01-27T19:22:43.295Z,100
2023-01-27T19:25:09.936Z,100
2023-01-27T19:27:36.698Z,100
2023-01-27T19:30:03.290Z,100
2023-01-27T19:32:30.099Z,100
2023-01-27T19:34:56.773Z,100
2023-01-27T19:37:23.518Z,100
2023-01-27T19:39:50.171Z,100
2023-01-27T19:42:16.842Z,100
2023-01-27T19:44:43.551Z,100
2023-01-27T19:47:08.702Z,100
2023-01-27T19:49:35.307Z,100
2023-01-27T19:52:02.116Z,100
2023-01-27T19:54:28.711Z,100
2023-01-27T19:56:55.534Z,100
2023-01-27T19:59:22.183Z,100
2023-01-27T20:01:48.799Z,100
2023-01-27T20:04:15.538Z,100
2023-01-27T20:06:42.235Z,100
2023-01-27T20:09:08.953Z,100
2023-01-27T20:14:02.307Z,100
2023-01-27T20:18:55.631Z,100
2023-01-27T20:21:21.858Z,100
2023-01-27T20:23:48.491Z,100
2023-01-27T20:26:15.296Z,100
2023-01-27T20:28:41.880Z,100
2023-01-27T20:33:35.234Z,100
2023-01-27T20:36:02.021Z,100
2023-01-27T20:38:27.267Z,100
2023-01-27T20:40:53.466Z,100
2023-01-27T20:43:20.307Z,100
2023-01-27T20:48:13.528Z,100
2023-01-27T20:50:40.212Z,100
2023-01-27T20:53:06.951Z,100
2023-01-27T20:55:33.575Z,100
2023-01-27T20:58:00.317Z,100
2023-01-27T21:00:26.936Z,100
2023-01-27T21:02:53.660Z,100
2023-01-27T21:05:20.323Z,100
2023-01-27T21:07:47.049Z,100
2023-01-27T21:10:13.719Z,100
2023-01-27T21:12:40.437Z,100
2023-01-27T21:17:33.452Z,100
2023-01-27T21:19:59.704Z,100
2023-01-27T21:22:24.920Z,100
2023-01-27T21:24:51.732Z,100
2023-01-27T21:27:18.276Z,100
2023-01-27T21:29:44.975Z,100
2023-01-27T21:32:11.725Z,100
2023-01-27T21:34:38.354Z,100
2023-01-27T21:37:05.164Z,100
2023-01-27T21:39:31.739Z,100
2023-01-27T21:41:58.446Z,100
2023-01-27T21:44:25.155Z,100
2023-01-27T21:46:51.778Z,100
2023-01-27T21:49:18.425Z,100
2023-01-27T21:51:43.684Z,100
2023-01-27T21:54:09.985Z,100
2023-01-27T21:56:36.687Z,100
2023-01-27T21:59:03.389Z,100
2023-01-27T22:01:30.029Z,100
2023-01-27T22:03:56.736Z,100
2023-01-27T22:06:23.474Z,100
2023-01-27T22:08:50.265Z,100
2023-01-27T22:11:16.799Z,100
2023-01-27T22:13:43.468Z,100
2023-01-27T22:16:10.155Z,100
2023-01-27T22:21:03.264Z,100
2023-01-27T22:23:29.583Z,100
2023-01-27T22:25:56.173Z,100
2023-01-27T22:28:22.830Z,100
2023-01-27T22:30:49.576Z,100
2023-01-27T22:33:16.343Z,100
2023-01-27T22:38:09.570Z,100
2023-01-27T22:40:34.813Z,100
2023-01-27T22:45:27.798Z,100
2023-01-27T22:47:54.507Z,100
2023-01-27T22:50:21.203Z,100
2023-01-27T22:52:47.858Z,100
2023-01-27T22:55:14.693Z,100
2023-01-27T22:57:41.349Z,100
2023-01-27T23:00:07.994Z,100
2023-01-27T23:02:34.581Z,100
2023-01-27T23:05:01.276Z,100
2023-01-27T23:07:28.054Z,100
2023-01-27T23:09:53.221Z,100
2023-01-27T23:14:46.186Z,100
2023-01-27T23:17:12.883Z,100
2023-01-27T23:19:39.573Z,100
2023-01-27T23:22:06.265Z,100
2023-01-27T23:26:59.617Z,100
2023-01-27T23:29:26.288Z,100
2023-01-27T23:31:53.102Z,100
2023-01-27T23:34:19.772Z,100
2023-01-27T23:36:46.385Z,100
2023-01-27T23:39:13.045Z,100
2023-01-27T23:41:39.794Z,100
2023-01-27T23:44:06.409Z,100
2023-01-27T23:46:32.746Z,100
2023-01-27T23:51:26.080Z,100
2023-01-27T23:53:52.799Z,100
2023-01-27T23:58:45.794Z,100
